sensor_id;sensor_type;location;lat;lon;timestamp;P1;durP1;ratioP1;P2;durP2;ratioP2
49860;SDS011;35761;48.826;9.238;2023-03-09T00:01:25;5.82;;;1.58;;
49860;SDS011;35761;48.826;9.238;2023-03-09T00:03:55;3.22;;;1.50;;
49860;SDS011;35761;48.826;9.238;2023-03-09T00:06:27;4.20;;;1.92;;
49860;SDS011;35761;48.826;9.238;2023-03-09T00:08:56;2.63;;;1.40;;
49860;SDS011;35761;48.826;9.238;2023-03-09T00:11:24;9.05;;;2.20;;
49860;SDS011;35761;48.826;9.238;2023-03-09T00:13:53;7.70;;;1.73;;
49860;SDS011;35761;48.826;9.238;2023-03-09T00:16:24;2.65;;;1.38;;
49860;SDS011;35761;48.826;9.238;2023-03-09T00:18:54;5.30;;;1.55;;
49860;SDS011;35761;48.826;9.238;2023-03-09T00:21:24;4.43;;;1.55;;
49860;SDS011;35761;48.826;9.238;2023-03-09T00:24:06;4.43;;;1.52;;
49860;SDS011;35761;48.826;9.238;2023-03-09T00:26:37;5.50;;;1.70;;
49860;SDS011;35761;48.826;9.238;2023-03-09T00:29:07;7.82;;;1.77;;
49860;SDS011;35761;48.826;9.238;2023-03-09T00:31:36;5.07;;;1.50;;
49860;SDS011;35761;48.826;9.238;2023-03-09T00:34:06;5.88;;;2.05;;
49860;SDS011;35761;48.826;9.238;2023-03-09T00:36:36;5.20;;;1.23;;
49860;SDS011;35761;48.826;9.238;2023-03-09T00:39:05;1.83;;;1.05;;
49860;SDS011;35761;48.826;9.238;2023-03-09T00:41:33;2.05;;;1.20;;
49860;SDS011;35761;48.826;9.238;2023-03-09T00:44:02;3.60;;;1.38;;
49860;SDS011;35761;48.826;9.238;2023-03-09T00:46:33;2.08;;;1.00;;
49860;SDS011;35761;48.826;9.238;2023-03-09T00:49:02;2.35;;;1.00;;
49860;SDS011;35761;48.826;9.238;2023-03-09T00:51:33;2.33;;;1.08;;
49860;SDS011;35761;48.826;9.238;2023-03-09T00:54:04;3.78;;;1.13;;
49860;SDS011;35761;48.826;9.238;2023-03-09T00:56:33;3.00;;;0.85;;
49860;SDS011;35761;48.826;9.238;2023-03-09T00:59:02;7.25;;;1.35;;
49860;SDS011;35761;48.826;9.238;2023-03-09T01:01:31;3.25;;;1.17;;
49860;SDS011;35761;48.826;9.238;2023-03-09T01:04:00;3.95;;;1.20;;
49860;SDS011;35761;48.826;9.238;2023-03-09T01:06:28;4.57;;;1.00;;
49860;SDS011;35761;48.826;9.238;2023-03-09T01:08:57;1.60;;;0.80;;
49860;SDS011;35761;48.826;9.238;2023-03-09T01:11:27;2.17;;;0.73;;
49860;SDS011;35761;48.826;9.238;2023-03-09T01:13:56;0.60;;;0.52;;
49860;SDS011;35761;48.826;9.238;2023-03-09T01:16:25;0.40;;;0.40;;
49860;SDS011;35761;48.826;9.238;2023-03-09T01:18:53;3.15;;;0.63;;
49860;SDS011;35761;48.826;9.238;2023-03-09T01:21:22;2.35;;;0.57;;
49860;SDS011;35761;48.826;9.238;2023-03-09T01:23:51;0.98;;;0.43;;
49860;SDS011;35761;48.826;9.238;2023-03-09T01:26:19;0.50;;;0.50;;
49860;SDS011;35761;48.826;9.238;2023-03-09T01:28:51;2.42;;;0.45;;
49860;SDS011;35761;48.826;9.238;2023-03-09T01:31:20;1.63;;;0.68;;
49860;SDS011;35761;48.826;9.238;2023-03-09T01:33:49;0.60;;;0.40;;
49860;SDS011;35761;48.826;9.238;2023-03-09T01:36:20;1.45;;;0.52;;
49860;SDS011;35761;48.826;9.238;2023-03-09T01:38:48;0.85;;;0.25;;
49860;SDS011;35761;48.826;9.238;2023-03-09T01:41:18;0.40;;;0.38;;
49860;SDS011;35761;48.826;9.238;2023-03-09T01:43:48;0.88;;;0.28;;
49860;SDS011;35761;48.826;9.238;2023-03-09T01:46:25;2.00;;;0.70;;
49860;SDS011;35761;48.826;9.238;2023-03-09T01:48:59;1.02;;;0.40;;
49860;SDS011;35761;48.826;9.238;2023-03-09T01:51:32;3.03;;;0.25;;
49860;SDS011;35761;48.826;9.238;2023-03-09T01:54:04;0.70;;;0.52;;
49860;SDS011;35761;48.826;9.238;2023-03-09T01:56:35;0.50;;;0.40;;
49860;SDS011;35761;48.826;9.238;2023-03-09T01:59:04;3.08;;;0.60;;
49860;SDS011;35761;48.826;9.238;2023-03-09T02:01:35;0.75;;;0.50;;
49860;SDS011;35761;48.826;9.238;2023-03-09T02:04:05;1.05;;;0.40;;
49860;SDS011;35761;48.826;9.238;2023-03-09T02:06:36;2.55;;;0.63;;
49860;SDS011;35761;48.826;9.238;2023-03-09T02:09:07;1.10;;;0.50;;
49860;SDS011;35761;48.826;9.238;2023-03-09T02:11:42;0.88;;;0.40;;
49860;SDS011;35761;48.826;9.238;2023-03-09T02:14:11;1.25;;;0.60;;
49860;SDS011;35761;48.826;9.238;2023-03-09T02:16:42;6.93;;;0.65;;
49860;SDS011;35761;48.826;9.238;2023-03-09T02:19:16;4.40;;;0.95;;
49860;SDS011;35761;48.826;9.238;2023-03-09T02:21:54;1.42;;;0.28;;
49860;SDS011;35761;48.826;9.238;2023-03-09T02:24:25;1.35;;;0.43;;
49860;SDS011;35761;48.826;9.238;2023-03-09T02:26:59;2.08;;;0.40;;
49860;SDS011;35761;48.826;9.238;2023-03-09T02:29:30;1.88;;;0.28;;
49860;SDS011;35761;48.826;9.238;2023-03-09T02:31:59;1.17;;;0.30;;
49860;SDS011;35761;48.826;9.238;2023-03-09T02:34:27;2.40;;;0.30;;
49860;SDS011;35761;48.826;9.238;2023-03-09T02:36:56;0.63;;;0.20;;
49860;SDS011;35761;48.826;9.238;2023-03-09T02:39:27;0.60;;;0.60;;
49860;SDS011;35761;48.826;9.238;2023-03-09T02:42:00;0.68;;;0.30;;
49860;SDS011;35761;48.826;9.238;2023-03-09T02:44:31;1.08;;;0.20;;
49860;SDS011;35761;48.826;9.238;2023-03-09T02:47:01;1.10;;;0.50;;
49860;SDS011;35761;48.826;9.238;2023-03-09T02:49:36;0.40;;;0.28;;
49860;SDS011;35761;48.826;9.238;2023-03-09T02:52:05;0.73;;;0.38;;
49860;SDS011;35761;48.826;9.238;2023-03-09T02:54:33;6.28;;;2.97;;
49860;SDS011;35761;48.826;9.238;2023-03-09T02:57:02;6.60;;;3.38;;
49860;SDS011;35761;48.826;9.238;2023-03-09T02:59:32;1.65;;;0.60;;
49860;SDS011;35761;48.826;9.238;2023-03-09T03:02:01;1.75;;;0.60;;
49860;SDS011;35761;48.826;9.238;2023-03-09T03:04:30;1.42;;;0.40;;
49860;SDS011;35761;48.826;9.238;2023-03-09T03:06:59;0.32;;;0.32;;
49860;SDS011;35761;48.826;9.238;2023-03-09T03:09:30;0.65;;;0.45;;
49860;SDS011;35761;48.826;9.238;2023-03-09T03:11:59;0.40;;;0.40;;
49860;SDS011;35761;48.826;9.238;2023-03-09T03:14:28;1.55;;;0.30;;
49860;SDS011;35761;48.826;9.238;2023-03-09T03:16:58;1.23;;;0.38;;
49860;SDS011;35761;48.826;9.238;2023-03-09T03:19:27;2.05;;;0.43;;
49860;SDS011;35761;48.826;9.238;2023-03-09T03:21:55;2.22;;;0.93;;
49860;SDS011;35761;48.826;9.238;2023-03-09T03:24:24;1.40;;;0.60;;
49860;SDS011;35761;48.826;9.238;2023-03-09T03:26:53;0.55;;;0.40;;
49860;SDS011;35761;48.826;9.238;2023-03-09T03:29:23;0.88;;;0.22;;
49860;SDS011;35761;48.826;9.238;2023-03-09T03:31:53;3.10;;;0.40;;
49860;SDS011;35761;48.826;9.238;2023-03-09T03:34:26;3.67;;;0.13;;
49860;SDS011;35761;48.826;9.238;2023-03-09T03:36:54;0.20;;;0.20;;
49860;SDS011;35761;48.826;9.238;2023-03-09T03:39:25;0.55;;;0.30;;
49860;SDS011;35761;48.826;9.238;2023-03-09T03:41:58;3.72;;;0.47;;
49860;SDS011;35761;48.826;9.238;2023-03-09T03:44:27;1.10;;;0.50;;
49860;SDS011;35761;48.826;9.238;2023-03-09T03:46:56;5.05;;;0.57;;
49860;SDS011;35761;48.826;9.238;2023-03-09T03:49:27;1.45;;;0.70;;
49860;SDS011;35761;48.826;9.238;2023-03-09T03:51:58;3.10;;;0.57;;
49860;SDS011;35761;48.826;9.238;2023-03-09T03:54:27;3.67;;;0.90;;
49860;SDS011;35761;48.826;9.238;2023-03-09T03:56:57;3.50;;;1.50;;
49860;SDS011;35761;48.826;9.238;2023-03-09T03:59:26;2.00;;;0.63;;
49860;SDS011;35761;48.826;9.238;2023-03-09T04:01:55;3.70;;;0.85;;
49860;SDS011;35761;48.826;9.238;2023-03-09T04:04:28;1.77;;;0.70;;
49860;SDS011;35761;48.826;9.238;2023-03-09T04:07:02;5.10;;;1.10;;
49860;SDS011;35761;48.826;9.238;2023-03-09T04:09:31;4.13;;;0.90;;
49860;SDS011;35761;48.826;9.238;2023-03-09T04:11:59;3.70;;;0.85;;
49860;SDS011;35761;48.826;9.238;2023-03-09T04:14:30;1.48;;;0.80;;
49860;SDS011;35761;48.826;9.238;2023-03-09T04:17:01;1.58;;;0.80;;
49860;SDS011;35761;48.826;9.238;2023-03-09T04:19:32;4.18;;;0.90;;
49860;SDS011;35761;48.826;9.238;2023-03-09T04:22:01;6.93;;;1.80;;
49860;SDS011;35761;48.826;9.238;2023-03-09T04:24:31;5.93;;;1.40;;
49860;SDS011;35761;48.826;9.238;2023-03-09T04:26:59;7.55;;;1.38;;
49860;SDS011;35761;48.826;9.238;2023-03-09T04:29:40;7.20;;;1.42;;
49860;SDS011;35761;48.826;9.238;2023-03-09T04:32:11;9.27;;;1.70;;
49860;SDS011;35761;48.826;9.238;2023-03-09T04:34:41;9.32;;;1.63;;
49860;SDS011;35761;48.826;9.238;2023-03-09T04:37:12;7.97;;;1.63;;
49860;SDS011;35761;48.826;9.238;2023-03-09T04:39:41;4.88;;;1.52;;
49860;SDS011;35761;48.826;9.238;2023-03-09T04:42:10;10.13;;;1.88;;
49860;SDS011;35761;48.826;9.238;2023-03-09T04:44:39;9.95;;;1.65;;
49860;SDS011;35761;48.826;9.238;2023-03-09T04:47:09;9.95;;;1.75;;
49860;SDS011;35761;48.826;9.238;2023-03-09T04:49:41;9.65;;;1.92;;
49860;SDS011;35761;48.826;9.238;2023-03-09T04:52:11;13.32;;;1.85;;
49860;SDS011;35761;48.826;9.238;2023-03-09T04:54:41;9.25;;;1.73;;
49860;SDS011;35761;48.826;9.238;2023-03-09T04:57:10;9.82;;;1.65;;
49860;SDS011;35761;48.826;9.238;2023-03-09T04:59:39;8.02;;;1.80;;
49860;SDS011;35761;48.826;9.238;2023-03-09T05:02:08;7.95;;;1.85;;
49860;SDS011;35761;48.826;9.238;2023-03-09T05:04:43;16.67;;;2.90;;
49860;SDS011;35761;48.826;9.238;2023-03-09T05:07:12;9.70;;;1.92;;
49860;SDS011;35761;48.826;9.238;2023-03-09T05:09:41;9.85;;;2.35;;
49860;SDS011;35761;48.826;9.238;2023-03-09T05:12:11;10.55;;;2.38;;
49860;SDS011;35761;48.826;9.238;2023-03-09T05:14:41;12.27;;;2.45;;
49860;SDS011;35761;48.826;9.238;2023-03-09T05:17:11;10.30;;;1.95;;
49860;SDS011;35761;48.826;9.238;2023-03-09T05:19:43;9.13;;;2.38;;
49860;SDS011;35761;48.826;9.238;2023-03-09T05:22:12;8.07;;;2.00;;
49860;SDS011;35761;48.826;9.238;2023-03-09T05:24:41;12.45;;;1.75;;
49860;SDS011;35761;48.826;9.238;2023-03-09T05:27:10;11.07;;;2.00;;
49860;SDS011;35761;48.826;9.238;2023-03-09T05:29:39;14.63;;;5.40;;
49860;SDS011;35761;48.826;9.238;2023-03-09T05:32:09;11.40;;;2.85;;
49860;SDS011;35761;48.826;9.238;2023-03-09T05:34:38;10.15;;;2.10;;
49860;SDS011;35761;48.826;9.238;2023-03-09T05:37:08;8.85;;;2.85;;
49860;SDS011;35761;48.826;9.238;2023-03-09T05:39:37;13.95;;;2.20;;
49860;SDS011;35761;48.826;9.238;2023-03-09T05:42:08;12.90;;;2.22;;
49860;SDS011;35761;48.826;9.238;2023-03-09T05:44:38;8.48;;;1.95;;
49860;SDS011;35761;48.826;9.238;2023-03-09T05:47:07;10.65;;;1.77;;
49860;SDS011;35761;48.826;9.238;2023-03-09T05:49:35;11.82;;;2.03;;
49860;SDS011;35761;48.826;9.238;2023-03-09T05:52:04;8.55;;;1.88;;
49860;SDS011;35761;48.826;9.238;2023-03-09T05:54:37;11.65;;;2.40;;
49860;SDS011;35761;48.826;9.238;2023-03-09T05:57:10;14.35;;;2.50;;
49860;SDS011;35761;48.826;9.238;2023-03-09T05:59:40;15.23;;;2.65;;
49860;SDS011;35761;48.826;9.238;2023-03-09T06:02:09;9.02;;;2.38;;
49860;SDS011;35761;48.826;9.238;2023-03-09T06:04:40;10.43;;;2.53;;
49860;SDS011;35761;48.826;9.238;2023-03-09T06:07:10;12.20;;;2.05;;
49860;SDS011;35761;48.826;9.238;2023-03-09T06:09:45;11.98;;;2.97;;
49860;SDS011;35761;48.826;9.238;2023-03-09T06:12:19;11.40;;;1.92;;
49860;SDS011;35761;48.826;9.238;2023-03-09T06:14:50;12.73;;;2.00;;
49860;SDS011;35761;48.826;9.238;2023-03-09T06:17:21;11.55;;;2.60;;
49860;SDS011;35761;48.826;9.238;2023-03-09T06:19:51;8.10;;;2.05;;
49860;SDS011;35761;48.826;9.238;2023-03-09T06:22:21;10.63;;;2.67;;
49860;SDS011;35761;48.826;9.238;2023-03-09T06:24:52;9.20;;;2.13;;
49860;SDS011;35761;48.826;9.238;2023-03-09T06:27:21;12.95;;;2.10;;
49860;SDS011;35761;48.826;9.238;2023-03-09T06:29:52;12.75;;;2.10;;
49860;SDS011;35761;48.826;9.238;2023-03-09T06:32:21;8.07;;;2.45;;
49860;SDS011;35761;48.826;9.238;2023-03-09T06:34:51;9.95;;;2.53;;
49860;SDS011;35761;48.826;9.238;2023-03-09T06:37:19;9.35;;;1.80;;
49860;SDS011;35761;48.826;9.238;2023-03-09T06:39:49;13.35;;;2.03;;
49860;SDS011;35761;48.826;9.238;2023-03-09T06:42:20;8.90;;;1.65;;
49860;SDS011;35761;48.826;9.238;2023-03-09T06:44:52;15.43;;;3.33;;
49860;SDS011;35761;48.826;9.238;2023-03-09T06:47:25;16.05;;;2.03;;
49860;SDS011;35761;48.826;9.238;2023-03-09T06:50:02;7.57;;;2.03;;
49860;SDS011;35761;48.826;9.238;2023-03-09T06:52:34;8.63;;;1.90;;
49860;SDS011;35761;48.826;9.238;2023-03-09T06:55:06;5.65;;;2.13;;
49860;SDS011;35761;48.826;9.238;2023-03-09T06:57:47;14.88;;;3.22;;
49860;SDS011;35761;48.826;9.238;2023-03-09T07:00:16;9.75;;;2.17;;
49860;SDS011;35761;48.826;9.238;2023-03-09T07:02:49;12.52;;;2.22;;
49860;SDS011;35761;48.826;9.238;2023-03-09T07:05:18;15.93;;;2.63;;
49860;SDS011;35761;48.826;9.238;2023-03-09T07:07:47;10.35;;;2.28;;
49860;SDS011;35761;48.826;9.238;2023-03-09T07:10:17;10.93;;;2.40;;
49860;SDS011;35761;48.826;9.238;2023-03-09T07:12:46;10.45;;;2.00;;
49860;SDS011;35761;48.826;9.238;2023-03-09T07:15:15;8.27;;;2.28;;
49860;SDS011;35761;48.826;9.238;2023-03-09T07:17:44;12.20;;;2.47;;
49860;SDS011;35761;48.826;9.238;2023-03-09T07:20:13;7.03;;;2.05;;
49860;SDS011;35761;48.826;9.238;2023-03-09T07:22:43;11.40;;;2.28;;
49860;SDS011;35761;48.826;9.238;2023-03-09T07:25:12;8.75;;;1.80;;
49860;SDS011;35761;48.826;9.238;2023-03-09T07:27:42;8.75;;;2.25;;
49860;SDS011;35761;48.826;9.238;2023-03-09T07:30:10;15.60;;;2.33;;
49860;SDS011;35761;48.826;9.238;2023-03-09T07:32:41;10.38;;;1.92;;
49860;SDS011;35761;48.826;9.238;2023-03-09T07:35:09;10.10;;;2.10;;
49860;SDS011;35761;48.826;9.238;2023-03-09T07:37:38;8.05;;;1.80;;
49860;SDS011;35761;48.826;9.238;2023-03-09T07:40:10;11.27;;;1.85;;
49860;SDS011;35761;48.826;9.238;2023-03-09T07:42:39;15.13;;;2.83;;
49860;SDS011;35761;48.826;9.238;2023-03-09T07:45:22;11.25;;;2.08;;
49860;SDS011;35761;48.826;9.238;2023-03-09T07:47:50;8.10;;;1.75;;
49860;SDS011;35761;48.826;9.238;2023-03-09T07:50:19;12.05;;;1.83;;
49860;SDS011;35761;48.826;9.238;2023-03-09T07:52:48;7.35;;;2.00;;
49860;SDS011;35761;48.826;9.238;2023-03-09T07:55:17;5.47;;;1.60;;
49860;SDS011;35761;48.826;9.238;2023-03-09T07:57:50;15.15;;;2.08;;
49860;SDS011;35761;48.826;9.238;2023-03-09T08:00:19;12.60;;;2.13;;
49860;SDS011;35761;48.826;9.238;2023-03-09T08:02:49;10.10;;;2.30;;
49860;SDS011;35761;48.826;9.238;2023-03-09T08:05:18;9.30;;;1.75;;
49860;SDS011;35761;48.826;9.238;2023-03-09T08:07:47;10.90;;;2.20;;
49860;SDS011;35761;48.826;9.238;2023-03-09T08:10:17;8.32;;;2.03;;
49860;SDS011;35761;48.826;9.238;2023-03-09T08:12:46;11.05;;;2.10;;
49860;SDS011;35761;48.826;9.238;2023-03-09T08:15:17;6.07;;;1.70;;
49860;SDS011;35761;48.826;9.238;2023-03-09T08:17:48;8.95;;;1.80;;
49860;SDS011;35761;48.826;9.238;2023-03-09T08:20:17;6.50;;;1.60;;
49860;SDS011;35761;48.826;9.238;2023-03-09T08:22:46;11.93;;;1.77;;
49860;SDS011;35761;48.826;9.238;2023-03-09T08:25:16;5.47;;;1.30;;
49860;SDS011;35761;48.826;9.238;2023-03-09T08:27:45;8.38;;;1.75;;
49860;SDS011;35761;48.826;9.238;2023-03-09T08:30:14;9.02;;;1.92;;
49860;SDS011;35761;48.826;9.238;2023-03-09T08:32:47;6.40;;;1.50;;
49860;SDS011;35761;48.826;9.238;2023-03-09T08:35:16;8.23;;;1.55;;
49860;SDS011;35761;48.826;9.238;2023-03-09T08:37:45;6.45;;;1.50;;
49860;SDS011;35761;48.826;9.238;2023-03-09T08:40:15;8.13;;;1.35;;
49860;SDS011;35761;48.826;9.238;2023-03-09T08:42:44;7.00;;;1.60;;
49860;SDS011;35761;48.826;9.238;2023-03-09T08:45:13;6.30;;;1.45;;
49860;SDS011;35761;48.826;9.238;2023-03-09T08:47:41;7.82;;;1.65;;
49860;SDS011;35761;48.826;9.238;2023-03-09T08:50:11;7.32;;;1.70;;
49860;SDS011;35761;48.826;9.238;2023-03-09T08:52:40;7.80;;;1.35;;
49860;SDS011;35761;48.826;9.238;2023-03-09T08:55:09;8.07;;;1.40;;
49860;SDS011;35761;48.826;9.238;2023-03-09T08:57:38;5.53;;;1.30;;
49860;SDS011;35761;48.826;9.238;2023-03-09T09:00:07;6.22;;;1.50;;
49860;SDS011;35761;48.826;9.238;2023-03-09T09:02:38;10.90;;;1.80;;
49860;SDS011;35761;48.826;9.238;2023-03-09T09:05:08;6.78;;;1.73;;
49860;SDS011;35761;48.826;9.238;2023-03-09T09:07:38;9.05;;;1.40;;
49860;SDS011;35761;48.826;9.238;2023-03-09T09:10:10;7.10;;;1.95;;
49860;SDS011;35761;48.826;9.238;2023-03-09T09:12:59;6.35;;;1.40;;
49860;SDS011;35761;48.826;9.238;2023-03-09T09:15:28;9.45;;;1.58;;
49860;SDS011;35761;48.826;9.238;2023-03-09T09:18:00;4.90;;;1.33;;
49860;SDS011;35761;48.826;9.238;2023-03-09T09:20:29;4.32;;;1.23;;
49860;SDS011;35761;48.826;9.238;2023-03-09T09:22:59;8.75;;;1.33;;
49860;SDS011;35761;48.826;9.238;2023-03-09T09:25:28;6.43;;;1.30;;
49860;SDS011;35761;48.826;9.238;2023-03-09T09:27:59;3.00;;;1.00;;
49860;SDS011;35761;48.826;9.238;2023-03-09T09:30:27;2.13;;;0.80;;
49860;SDS011;35761;48.826;9.238;2023-03-09T09:32:58;5.38;;;1.42;;
49860;SDS011;35761;48.826;9.238;2023-03-09T09:35:27;8.02;;;4.10;;
49860;SDS011;35761;48.826;9.238;2023-03-09T09:37:56;4.97;;;1.92;;
49860;SDS011;35761;48.826;9.238;2023-03-09T09:40:27;5.43;;;1.52;;
49860;SDS011;35761;48.826;9.238;2023-03-09T09:42:56;7.20;;;1.50;;
49860;SDS011;35761;48.826;9.238;2023-03-09T09:45:29;4.90;;;1.58;;
49860;SDS011;35761;48.826;9.238;2023-03-09T09:48:00;7.00;;;1.23;;
49860;SDS011;35761;48.826;9.238;2023-03-09T09:53:25;6.10;;;1.25;;
49860;SDS011;35761;48.826;9.238;2023-03-09T09:56:01;4.95;;;1.48;;
49860;SDS011;35761;48.826;9.238;2023-03-09T09:58:32;6.85;;;1.33;;
49860;SDS011;35761;48.826;9.238;2023-03-09T10:01:04;6.18;;;1.17;;
49860;SDS011;35761;48.826;9.238;2023-03-09T10:03:40;4.40;;;1.30;;
49860;SDS011;35761;48.826;9.238;2023-03-09T10:06:13;10.32;;;3.50;;
49860;SDS011;35761;48.826;9.238;2023-03-09T10:08:45;4.80;;;1.30;;
49860;SDS011;35761;48.826;9.238;2023-03-09T10:11:20;4.57;;;1.33;;
49860;SDS011;35761;48.826;9.238;2023-03-09T10:13:51;4.28;;;1.08;;
49860;SDS011;35761;48.826;9.238;2023-03-09T10:16:24;7.80;;;1.67;;
49860;SDS011;35761;48.826;9.238;2023-03-09T10:18:55;5.63;;;1.63;;
49860;SDS011;35761;48.826;9.238;2023-03-09T10:21:26;5.03;;;1.33;;
49860;SDS011;35761;48.826;9.238;2023-03-09T10:23:58;5.32;;;1.48;;
49860;SDS011;35761;48.826;9.238;2023-03-09T10:26:41;6.20;;;1.23;;
49860;SDS011;35761;48.826;9.238;2023-03-09T10:29:13;6.05;;;1.30;;
49860;SDS011;35761;48.826;9.238;2023-03-09T10:31:45;5.40;;;1.38;;
49860;SDS011;35761;48.826;9.238;2023-03-09T10:34:20;3.95;;;1.17;;
49860;SDS011;35761;48.826;9.238;2023-03-09T10:36:55;5.07;;;1.10;;
49860;SDS011;35761;48.826;9.238;2023-03-09T10:39:28;4.13;;;0.95;;
49860;SDS011;35761;48.826;9.238;2023-03-09T10:42:04;6.68;;;1.13;;
49860;SDS011;35761;48.826;9.238;2023-03-09T10:44:42;3.08;;;1.10;;
49860;SDS011;35761;48.826;9.238;2023-03-09T10:47:18;5.45;;;1.27;;
49860;SDS011;35761;48.826;9.238;2023-03-09T10:52:49;6.35;;;1.17;;
49860;SDS011;35761;48.826;9.238;2023-03-09T10:55:35;6.75;;;1.00;;
49860;SDS011;35761;48.826;9.238;2023-03-09T10:58:19;2.63;;;1.20;;
49860;SDS011;35761;48.826;9.238;2023-03-09T11:00:49;7.78;;;1.77;;
49860;SDS011;35761;48.826;9.238;2023-03-09T11:03:24;7.30;;;1.48;;
49860;SDS011;35761;48.826;9.238;2023-03-09T11:06:08;6.35;;;1.83;;
49860;SDS011;35761;48.826;9.238;2023-03-09T11:08:38;7.10;;;1.55;;
49860;SDS011;35761;48.826;9.238;2023-03-09T11:11:28;8.50;;;1.38;;
49860;SDS011;35761;48.826;9.238;2023-03-09T11:13:59;4.90;;;1.42;;
49860;SDS011;35761;48.826;9.238;2023-03-09T11:16:28;6.10;;;1.50;;
49860;SDS011;35761;48.826;9.238;2023-03-09T11:19:05;6.13;;;1.50;;
49860;SDS011;35761;48.826;9.238;2023-03-09T11:21:38;5.40;;;1.20;;
49860;SDS011;35761;48.826;9.238;2023-03-09T11:24:17;6.75;;;1.70;;
49860;SDS011;35761;48.826;9.238;2023-03-09T11:26:47;7.63;;;1.77;;
49860;SDS011;35761;48.826;9.238;2023-03-09T11:29:22;5.25;;;1.30;;
49860;SDS011;35761;48.826;9.238;2023-03-09T11:31:55;7.18;;;1.48;;
49860;SDS011;35761;48.826;9.238;2023-03-09T11:34:25;5.07;;;1.38;;
49860;SDS011;35761;48.826;9.238;2023-03-09T11:36:56;11.63;;;1.98;;
49860;SDS011;35761;48.826;9.238;2023-03-09T11:39:28;4.80;;;1.27;;
49860;SDS011;35761;48.826;9.238;2023-03-09T11:42:01;5.68;;;1.20;;
49860;SDS011;35761;48.826;9.238;2023-03-09T11:44:33;6.00;;;1.23;;
49860;SDS011;35761;48.826;9.238;2023-03-09T11:47:04;10.65;;;4.55;;
49860;SDS011;35761;48.826;9.238;2023-03-09T11:49:37;17.67;;;10.13;;
49860;SDS011;35761;48.826;9.238;2023-03-09T11:52:10;7.40;;;1.70;;
49860;SDS011;35761;48.826;9.238;2023-03-09T11:54:45;5.95;;;1.60;;
49860;SDS011;35761;48.826;9.238;2023-03-09T11:57:16;6.82;;;1.58;;
49860;SDS011;35761;48.826;9.238;2023-03-09T11:59:49;5.63;;;1.40;;
49860;SDS011;35761;48.826;9.238;2023-03-09T12:02:22;4.53;;;1.23;;
49860;SDS011;35761;48.826;9.238;2023-03-09T12:04:53;4.35;;;1.10;;
49860;SDS011;35761;48.826;9.238;2023-03-09T12:07:22;4.97;;;1.13;;
49860;SDS011;35761;48.826;9.238;2023-03-09T12:09:56;2.50;;;1.05;;
49860;SDS011;35761;48.826;9.238;2023-03-09T12:12:30;3.13;;;0.90;;
49860;SDS011;35761;48.826;9.238;2023-03-09T12:15:06;8.43;;;1.23;;
49860;SDS011;35761;48.826;9.238;2023-03-09T12:17:42;6.45;;;1.60;;
49860;SDS011;35761;48.826;9.238;2023-03-09T12:20:22;9.82;;;1.30;;
49860;SDS011;35761;48.826;9.238;2023-03-09T12:22:53;5.22;;;1.20;;
49860;SDS011;35761;48.826;9.238;2023-03-09T12:25:22;5.20;;;1.25;;
49860;SDS011;35761;48.826;9.238;2023-03-09T12:27:52;5.57;;;1.52;;
49860;SDS011;35761;48.826;9.238;2023-03-09T12:30:24;6.90;;;1.27;;
49860;SDS011;35761;48.826;9.238;2023-03-09T12:32:56;5.80;;;1.20;;
49860;SDS011;35761;48.826;9.238;2023-03-09T12:38:31;5.53;;;1.15;;
49860;SDS011;35761;48.826;9.238;2023-03-09T12:41:00;6.20;;;1.10;;
49860;SDS011;35761;48.826;9.238;2023-03-09T12:49:30;3.78;;;0.98;;
49860;SDS011;35761;48.826;9.238;2023-03-09T12:52:03;8.18;;;1.42;;
49860;SDS011;35761;48.826;9.238;2023-03-09T12:54:53;4.38;;;1.30;;
49860;SDS011;35761;48.826;9.238;2023-03-09T12:57:23;10.25;;;1.52;;
49860;SDS011;35761;48.826;9.238;2023-03-09T12:59:52;7.50;;;1.55;;
49860;SDS011;35761;48.826;9.238;2023-03-09T13:02:24;5.70;;;1.42;;
49860;SDS011;35761;48.826;9.238;2023-03-09T13:08:29;4.30;;;1.20;;
49860;SDS011;35761;48.826;9.238;2023-03-09T13:13:47;8.38;;;1.33;;
49860;SDS011;35761;48.826;9.238;2023-03-09T13:16:35;14.63;;;1.73;;
49860;SDS011;35761;48.826;9.238;2023-03-09T13:22:22;5.38;;;1.27;;
49860;SDS011;35761;48.826;9.238;2023-03-09T13:28:03;8.00;;;1.80;;
49860;SDS011;35761;48.826;9.238;2023-03-09T13:30:41;6.32;;;1.27;;
49860;SDS011;35761;48.826;9.238;2023-03-09T13:33:13;9.00;;;1.70;;
49860;SDS011;35761;48.826;9.238;2023-03-09T13:35:48;11.70;;;1.87;;
49860;SDS011;35761;48.826;9.238;2023-03-09T13:38:21;7.33;;;1.77;;
49860;SDS011;35761;48.826;9.238;2023-03-09T13:40:55;8.10;;;2.17;;
49860;SDS011;35761;48.826;9.238;2023-03-09T13:43:26;6.50;;;1.63;;
49860;SDS011;35761;48.826;9.238;2023-03-09T13:46:07;7.22;;;1.50;;
49860;SDS011;35761;48.826;9.238;2023-03-09T13:48:51;6.82;;;1.80;;
49860;SDS011;35761;48.826;9.238;2023-03-09T13:51:27;8.40;;;1.73;;
49860;SDS011;35761;48.826;9.238;2023-03-09T13:54:04;3.83;;;1.45;;
49860;SDS011;35761;48.826;9.238;2023-03-09T13:56:54;6.88;;;1.75;;
49860;SDS011;35761;48.826;9.238;2023-03-09T13:59:37;8.02;;;2.00;;
49860;SDS011;35761;48.826;9.238;2023-03-09T14:02:11;9.52;;;2.53;;
49860;SDS011;35761;48.826;9.238;2023-03-09T14:04:44;4.75;;;1.40;;
49860;SDS011;35761;48.826;9.238;2023-03-09T14:07:14;8.52;;;1.52;;
49860;SDS011;35761;48.826;9.238;2023-03-09T14:09:49;4.90;;;1.50;;
49860;SDS011;35761;48.826;9.238;2023-03-09T14:14:50;4.95;;;1.35;;
49860;SDS011;35761;48.826;9.238;2023-03-09T14:17:19;5.18;;;1.65;;
49860;SDS011;35761;48.826;9.238;2023-03-09T14:19:51;4.88;;;1.52;;
49860;SDS011;35761;48.826;9.238;2023-03-09T14:22:21;4.75;;;1.73;;
49860;SDS011;35761;48.826;9.238;2023-03-09T14:24:54;6.93;;;2.22;;
49860;SDS011;35761;48.826;9.238;2023-03-09T14:27:24;6.38;;;1.50;;
49860;SDS011;35761;48.826;9.238;2023-03-09T14:29:56;9.73;;;1.70;;
49860;SDS011;35761;48.826;9.238;2023-03-09T14:32:26;5.70;;;1.88;;
49860;SDS011;35761;48.826;9.238;2023-03-09T14:34:56;6.05;;;1.50;;
49860;SDS011;35761;48.826;9.238;2023-03-09T14:37:26;5.88;;;2.22;;
49860;SDS011;35761;48.826;9.238;2023-03-09T14:39:57;10.15;;;2.15;;
49860;SDS011;35761;48.826;9.238;2023-03-09T14:42:28;7.30;;;1.73;;
49860;SDS011;35761;48.826;9.238;2023-03-09T14:45:00;4.55;;;1.45;;
49860;SDS011;35761;48.826;9.238;2023-03-09T14:47:35;9.30;;;1.60;;
49860;SDS011;35761;48.826;9.238;2023-03-09T14:50:04;6.55;;;1.40;;
49860;SDS011;35761;48.826;9.238;2023-03-09T14:52:34;7.80;;;1.52;;
49860;SDS011;35761;48.826;9.238;2023-03-09T14:55:11;5.50;;;1.80;;
49860;SDS011;35761;48.826;9.238;2023-03-09T14:57:40;8.30;;;1.58;;
49860;SDS011;35761;48.826;9.238;2023-03-09T15:00:12;7.15;;;1.60;;
49860;SDS011;35761;48.826;9.238;2023-03-09T15:02:43;3.60;;;1.52;;
49860;SDS011;35761;48.826;9.238;2023-03-09T15:05:14;4.32;;;1.10;;
49860;SDS011;35761;48.826;9.238;2023-03-09T15:07:44;7.78;;;1.70;;
49860;SDS011;35761;48.826;9.238;2023-03-09T15:10:14;5.20;;;1.25;;
49860;SDS011;35761;48.826;9.238;2023-03-09T15:12:43;4.18;;;1.60;;
49860;SDS011;35761;48.826;9.238;2023-03-09T15:15:15;4.28;;;1.30;;
49860;SDS011;35761;48.826;9.238;2023-03-09T15:17:46;6.20;;;1.65;;
49860;SDS011;35761;48.826;9.238;2023-03-09T15:20:16;3.80;;;1.40;;
49860;SDS011;35761;48.826;9.238;2023-03-09T15:23:02;6.25;;;1.63;;
49860;SDS011;35761;48.826;9.238;2023-03-09T15:25:32;6.25;;;1.92;;
49860;SDS011;35761;48.826;9.238;2023-03-09T15:28:01;7.75;;;2.00;;
49860;SDS011;35761;48.826;9.238;2023-03-09T15:30:30;9.10;;;1.70;;
49860;SDS011;35761;48.826;9.238;2023-03-09T15:32:59;6.90;;;1.35;;
49860;SDS011;35761;48.826;9.238;2023-03-09T15:35:28;5.13;;;1.63;;
49860;SDS011;35761;48.826;9.238;2023-03-09T15:37:57;5.35;;;1.50;;
49860;SDS011;35761;48.826;9.238;2023-03-09T15:40:26;5.25;;;1.70;;